sensor_id;sensor_type;location;lat;lon;timestamp;P1;durP1;ratioP1;P2;durP2;ratioP2
46505;SDS011;32220;49.808;9.968;2024-02-26T00:00:26;2.87;;;2.03;;
46505;SDS011;32220;49.808;9.968;2024-02-26T00:02:54;2.97;;;2.10;;
46505;SDS011;32220;49.808;9.968;2024-02-26T00:05:21;2.90;;;2.20;;
46505;SDS011;32220;49.808;9.968;2024-02-26T00:07:50;3.03;;;2.30;;
46505;SDS011;32220;49.808;9.968;2024-02-26T00:10:18;2.57;;;2.17;;
46505;SDS011;32220;49.808;9.968;2024-02-26T00:12:45;2.33;;;2.03;;
46505;SDS011;32220;49.808;9.968;2024-02-26T00:15:13;3.20;;;2.33;;
46505;SDS011;32220;49.808;9.968;2024-02-26T00:17:41;3.40;;;2.50;;
46505;SDS011;32220;49.808;9.968;2024-02-26T00:20:10;2.23;;;2.03;;
46505;SDS011;32220;49.808;9.968;2024-02-26T00:22:38;3.37;;;2.27;;
46505;SDS011;32220;49.808;9.968;2024-02-26T00:25:07;2.50;;;2.30;;
46505;SDS011;32220;49.808;9.968;2024-02-26T00:27:35;3.20;;;2.37;;
46505;SDS011;32220;49.808;9.968;2024-02-26T00:30:02;3.63;;;2.43;;
46505;SDS011;32220;49.808;9.968;2024-02-26T00:32:30;2.77;;;2.47;;
46505;SDS011;32220;49.808;9.968;2024-02-26T00:34:58;3.27;;;2.40;;
46505;SDS011;32220;49.808;9.968;2024-02-26T00:37:25;3.73;;;2.70;;
46505;SDS011;32220;49.808;9.968;2024-02-26T00:39:53;3.87;;;2.80;;
46505;SDS011;32220;49.808;9.968;2024-02-26T00:42:22;3.57;;;2.47;;
46505;SDS011;32220;49.808;9.968;2024-02-26T00:44:49;3.43;;;2.33;;
46505;SDS011;32220;49.808;9.968;2024-02-26T00:47:17;2.53;;;2.23;;
46505;SDS011;32220;49.808;9.968;2024-02-26T00:49:44;3.53;;;2.73;;
46505;SDS011;32220;49.808;9.968;2024-02-26T00:52:12;3.60;;;2.53;;
46505;SDS011;32220;49.808;9.968;2024-02-26T00:54:39;3.90;;;2.60;;
46505;SDS011;32220;49.808;9.968;2024-02-26T00:57:07;4.33;;;3.03;;
46505;SDS011;32220;49.808;9.968;2024-02-26T00:59:36;4.23;;;2.93;;
46505;SDS011;32220;49.808;9.968;2024-02-26T01:02:03;3.53;;;2.70;;
46505;SDS011;32220;49.808;9.968;2024-02-26T01:04:32;3.87;;;2.70;;
46505;SDS011;32220;49.808;9.968;2024-02-26T01:07:01;4.17;;;2.77;;
46505;SDS011;32220;49.808;9.968;2024-02-26T01:09:29;3.63;;;2.60;;
46505;SDS011;32220;49.808;9.968;2024-02-26T01:11:56;2.73;;;2.23;;
46505;SDS011;32220;49.808;9.968;2024-02-26T01:14:24;2.33;;;2.07;;
46505;SDS011;32220;49.808;9.968;2024-02-26T01:16:52;2.60;;;2.30;;
46505;SDS011;32220;49.808;9.968;2024-02-26T01:19:20;3.27;;;2.67;;
46505;SDS011;32220;49.808;9.968;2024-02-26T01:21:48;2.90;;;2.27;;
46505;SDS011;32220;49.808;9.968;2024-02-26T01:24:15;3.63;;;2.47;;
46505;SDS011;32220;49.808;9.968;2024-02-26T01:26:43;3.50;;;2.37;;
46505;SDS011;32220;49.808;9.968;2024-02-26T01:29:10;3.67;;;2.43;;
46505;SDS011;32220;49.808;9.968;2024-02-26T01:31:37;2.90;;;2.17;;
46505;SDS011;32220;49.808;9.968;2024-02-26T01:34:06;2.13;;;1.93;;
46505;SDS011;32220;49.808;9.968;2024-02-26T01:36:34;3.07;;;2.03;;
46505;SDS011;32220;49.808;9.968;2024-02-26T01:39:01;2.20;;;1.93;;
46505;SDS011;32220;49.808;9.968;2024-02-26T01:41:30;1.93;;;1.70;;
46505;SDS011;32220;49.808;9.968;2024-02-26T01:43:57;2.70;;;2.23;;
46505;SDS011;32220;49.808;9.968;2024-02-26T01:46:25;2.23;;;2.00;;
46505;SDS011;32220;49.808;9.968;2024-02-26T01:48:52;3.97;;;2.53;;
46505;SDS011;32220;49.808;9.968;2024-02-26T01:51:22;3.60;;;2.13;;
46505;SDS011;32220;49.808;9.968;2024-02-26T01:53:50;3.27;;;2.30;;
46505;SDS011;32220;49.808;9.968;2024-02-26T01:56:18;2.40;;;1.80;;
46505;SDS011;32220;49.808;9.968;2024-02-26T01:58:48;2.90;;;2.13;;
46505;SDS011;32220;49.808;9.968;2024-02-26T02:01:16;2.73;;;1.97;;
46505;SDS011;32220;49.808;9.968;2024-02-26T02:03:49;2.20;;;1.90;;
46505;SDS011;32220;49.808;9.968;2024-02-26T02:06:16;2.27;;;2.00;;
46505;SDS011;32220;49.808;9.968;2024-02-26T02:08:45;2.63;;;2.23;;
46505;SDS011;32220;49.808;9.968;2024-02-26T02:11:13;3.20;;;2.07;;
46505;SDS011;32220;49.808;9.968;2024-02-26T02:13:41;2.67;;;1.87;;
46505;SDS011;32220;49.808;9.968;2024-02-26T02:16:09;3.83;;;1.97;;
46505;SDS011;32220;49.808;9.968;2024-02-26T02:18:36;3.23;;;2.20;;
46505;SDS011;32220;49.808;9.968;2024-02-26T02:21:05;2.17;;;1.80;;
46505;SDS011;32220;49.808;9.968;2024-02-26T02:23:33;2.20;;;2.00;;
46505;SDS011;32220;49.808;9.968;2024-02-26T02:26:00;2.50;;;2.00;;
46505;SDS011;32220;49.808;9.968;2024-02-26T02:28:28;2.53;;;2.33;;
46505;SDS011;32220;49.808;9.968;2024-02-26T02:30:55;2.70;;;2.00;;
46505;SDS011;32220;49.808;9.968;2024-02-26T02:33:24;3.50;;;2.00;;
46505;SDS011;32220;49.808;9.968;2024-02-26T02:35:53;2.73;;;2.30;;
46505;SDS011;32220;49.808;9.968;2024-02-26T02:38:22;2.50;;;1.90;;
46505;SDS011;32220;49.808;9.968;2024-02-26T02:40:51;2.37;;;2.07;;
46505;SDS011;32220;49.808;9.968;2024-02-26T02:43:19;2.50;;;1.93;;
46505;SDS011;32220;49.808;9.968;2024-02-26T02:45:47;2.20;;;2.00;;
46505;SDS011;32220;49.808;9.968;2024-02-26T02:48:14;1.90;;;1.60;;
46505;SDS011;32220;49.808;9.968;2024-02-26T02:50:42;2.93;;;1.90;;
46505;SDS011;32220;49.808;9.968;2024-02-26T02:53:09;3.17;;;2.10;;
46505;SDS011;32220;49.808;9.968;2024-02-26T02:55:38;3.50;;;1.97;;
46505;SDS011;32220;49.808;9.968;2024-02-26T02:58:06;3.30;;;2.43;;
46505;SDS011;32220;49.808;9.968;2024-02-26T03:00:33;3.70;;;2.70;;
46505;SDS011;32220;49.808;9.968;2024-02-26T03:03:01;2.40;;;1.93;;
46505;SDS011;32220;49.808;9.968;2024-02-26T03:05:28;2.67;;;2.13;;
46505;SDS011;32220;49.808;9.968;2024-02-26T03:07:56;2.90;;;2.20;;
46505;SDS011;32220;49.808;9.968;2024-02-26T03:10:23;3.33;;;2.60;;
46505;SDS011;32220;49.808;9.968;2024-02-26T03:12:53;2.60;;;2.00;;
46505;SDS011;32220;49.808;9.968;2024-02-26T03:15:22;2.80;;;2.30;;
46505;SDS011;32220;49.808;9.968;2024-02-26T03:17:49;3.33;;;2.17;;
46505;SDS011;32220;49.808;9.968;2024-02-26T03:20:17;3.53;;;2.77;;
46505;SDS011;32220;49.808;9.968;2024-02-26T03:22:45;3.43;;;2.13;;
46505;SDS011;32220;49.808;9.968;2024-02-26T03:25:13;3.03;;;2.20;;
46505;SDS011;32220;49.808;9.968;2024-02-26T03:27:40;3.47;;;2.30;;
46505;SDS011;32220;49.808;9.968;2024-02-26T03:30:09;2.57;;;2.20;;
46505;SDS011;32220;49.808;9.968;2024-02-26T03:32:37;3.57;;;2.67;;
46505;SDS011;32220;49.808;9.968;2024-02-26T03:35:05;5.37;;;2.37;;
46505;SDS011;32220;49.808;9.968;2024-02-26T03:37:33;3.40;;;2.50;;
46505;SDS011;32220;49.808;9.968;2024-02-26T03:40:00;3.13;;;2.07;;
46505;SDS011;32220;49.808;9.968;2024-02-26T03:42:29;3.43;;;2.00;;
46505;SDS011;32220;49.808;9.968;2024-02-26T03:44:56;3.03;;;2.10;;
46505;SDS011;32220;49.808;9.968;2024-02-26T03:47:25;2.70;;;1.97;;
46505;SDS011;32220;49.808;9.968;2024-02-26T03:49:53;2.27;;;2.07;;
46505;SDS011;32220;49.808;9.968;2024-02-26T03:52:20;3.33;;;2.37;;
46505;SDS011;32220;49.808;9.968;2024-02-26T03:54:48;3.17;;;2.30;;
46505;SDS011;32220;49.808;9.968;2024-02-26T03:57:15;3.43;;;2.40;;
46505;SDS011;32220;49.808;9.968;2024-02-26T03:59:43;3.23;;;2.50;;
46505;SDS011;32220;49.808;9.968;2024-02-26T04:02:10;4.27;;;2.20;;
46505;SDS011;32220;49.808;9.968;2024-02-26T04:04:39;3.63;;;2.60;;
46505;SDS011;32220;49.808;9.968;2024-02-26T04:07:06;3.10;;;2.40;;
46505;SDS011;32220;49.808;9.968;2024-02-26T04:09:34;2.73;;;2.10;;
46505;SDS011;32220;49.808;9.968;2024-02-26T04:12:01;3.77;;;2.60;;
46505;SDS011;32220;49.808;9.968;2024-02-26T04:14:29;5.60;;;2.40;;
46505;SDS011;32220;49.808;9.968;2024-02-26T04:16:56;3.03;;;2.40;;
46505;SDS011;32220;49.808;9.968;2024-02-26T04:19:24;2.20;;;1.90;;
46505;SDS011;32220;49.808;9.968;2024-02-26T04:21:53;2.70;;;2.50;;
46505;SDS011;32220;49.808;9.968;2024-02-26T04:24:21;4.00;;;2.30;;
46505;SDS011;32220;49.808;9.968;2024-02-26T04:26:49;2.63;;;2.20;;
46505;SDS011;32220;49.808;9.968;2024-02-26T04:29:16;2.17;;;1.90;;
46505;SDS011;32220;49.808;9.968;2024-02-26T04:31:44;2.20;;;1.57;;
46505;SDS011;32220;49.808;9.968;2024-02-26T04:34:12;2.80;;;1.80;;
46505;SDS011;32220;49.808;9.968;2024-02-26T04:36:40;2.77;;;1.97;;
46505;SDS011;32220;49.808;9.968;2024-02-26T04:39:09;5.37;;;2.57;;
46505;SDS011;32220;49.808;9.968;2024-02-26T04:41:37;2.90;;;2.00;;
46505;SDS011;32220;49.808;9.968;2024-02-26T04:44:04;3.30;;;2.57;;
46505;SDS011;32220;49.808;9.968;2024-02-26T04:46:32;3.60;;;2.20;;
46505;SDS011;32220;49.808;9.968;2024-02-26T04:49:00;4.57;;;2.30;;
46505;SDS011;32220;49.808;9.968;2024-02-26T04:51:28;3.03;;;2.37;;
46505;SDS011;32220;49.808;9.968;2024-02-26T04:53:55;4.73;;;2.70;;
46505;SDS011;32220;49.808;9.968;2024-02-26T04:56:24;4.50;;;2.70;;
46505;SDS011;32220;49.808;9.968;2024-02-26T04:58:52;3.43;;;2.50;;
46505;SDS011;32220;49.808;9.968;2024-02-26T05:01:19;3.33;;;2.40;;
46505;SDS011;32220;49.808;9.968;2024-02-26T05:03:47;3.70;;;2.70;;
46505;SDS011;32220;49.808;9.968;2024-02-26T05:06:15;4.57;;;2.60;;
46505;SDS011;32220;49.808;9.968;2024-02-26T05:08:42;4.07;;;2.33;;
46505;SDS011;32220;49.808;9.968;2024-02-26T05:11:10;4.20;;;2.70;;
46505;SDS011;32220;49.808;9.968;2024-02-26T05:13:39;4.47;;;2.73;;
46505;SDS011;32220;49.808;9.968;2024-02-26T05:16:06;3.83;;;2.57;;
46505;SDS011;32220;49.808;9.968;2024-02-26T05:18:34;4.13;;;2.73;;
46505;SDS011;32220;49.808;9.968;2024-02-26T05:21:01;4.80;;;2.97;;
46505;SDS011;32220;49.808;9.968;2024-02-26T05:23:29;3.63;;;2.40;;
46505;SDS011;32220;49.808;9.968;2024-02-26T05:25:57;2.80;;;2.10;;
46505;SDS011;32220;49.808;9.968;2024-02-26T05:28:24;3.33;;;2.60;;
46505;SDS011;32220;49.808;9.968;2024-02-26T05:30:53;3.40;;;2.67;;
46505;SDS011;32220;49.808;9.968;2024-02-26T05:33:21;3.53;;;2.30;;
46505;SDS011;32220;49.808;9.968;2024-02-26T05:35:49;2.87;;;2.57;;
46505;SDS011;32220;49.808;9.968;2024-02-26T05:38:16;2.93;;;2.30;;
46505;SDS011;32220;49.808;9.968;2024-02-26T08:28:30;9.30;;;5.93;;
46505;SDS011;32220;49.808;9.968;2024-02-26T08:30:58;8.53;;;6.20;;
46505;SDS011;32220;49.808;9.968;2024-02-26T08:36:33;6.37;;;5.27;;
46505;SDS011;32220;49.808;9.968;2024-02-26T08:39:01;9.40;;;5.40;;
46505;SDS011;32220;49.808;9.968;2024-02-26T08:41:30;8.43;;;5.80;;
46505;SDS011;32220;49.808;9.968;2024-02-26T08:43:59;8.47;;;5.87;;
46505;SDS011;32220;49.808;9.968;2024-02-26T08:46:26;10.50;;;6.83;;
46505;SDS011;32220;49.808;9.968;2024-02-26T08:49:05;8.47;;;5.67;;
46505;SDS011;32220;49.808;9.968;2024-02-26T08:51:33;7.40;;;5.63;;
46505;SDS011;32220;49.808;9.968;2024-02-26T08:54:01;9.83;;;5.87;;
46505;SDS011;32220;49.808;9.968;2024-02-26T08:56:29;7.00;;;5.40;;
46505;SDS011;32220;49.808;9.968;2024-02-26T08:58:58;8.50;;;5.60;;
46505;SDS011;32220;49.808;9.968;2024-02-26T09:01:30;7.23;;;5.00;;
46505;SDS011;32220;49.808;9.968;2024-02-26T09:03:59;7.27;;;5.40;;
46505;SDS011;32220;49.808;9.968;2024-02-26T09:06:27;7.83;;;5.43;;
46505;SDS011;32220;49.808;9.968;2024-02-26T09:08:55;8.53;;;5.43;;
46505;SDS011;32220;49.808;9.968;2024-02-26T09:11:26;8.83;;;5.70;;
46505;SDS011;32220;49.808;9.968;2024-02-26T09:13:54;5.20;;;4.50;;
46505;SDS011;32220;49.808;9.968;2024-02-26T09:16:23;7.53;;;5.07;;
46505;SDS011;32220;49.808;9.968;2024-02-26T09:18:51;8.47;;;4.70;;
46505;SDS011;32220;49.808;9.968;2024-02-26T09:21:19;6.63;;;5.07;;
46505;SDS011;32220;49.808;9.968;2024-02-26T09:23:49;5.80;;;4.47;;
46505;SDS011;32220;49.808;9.968;2024-02-26T09:26:17;5.50;;;4.53;;
46505;SDS011;32220;49.808;9.968;2024-02-26T09:28:49;6.13;;;3.97;;
46505;SDS011;32220;49.808;9.968;2024-02-26T09:31:17;6.27;;;4.43;;
46505;SDS011;32220;49.808;9.968;2024-02-26T09:33:46;6.30;;;4.27;;
46505;SDS011;32220;49.808;9.968;2024-02-26T09:36:14;5.77;;;4.27;;
46505;SDS011;32220;49.808;9.968;2024-02-26T09:38:42;6.83;;;4.20;;
46505;SDS011;32220;49.808;9.968;2024-02-26T09:41:10;5.00;;;4.47;;
46505;SDS011;32220;49.808;9.968;2024-02-26T09:43:42;5.63;;;3.67;;
46505;SDS011;32220;49.808;9.968;2024-02-26T09:46:11;6.33;;;4.90;;
46505;SDS011;32220;49.808;9.968;2024-02-26T09:48:42;5.47;;;4.23;;
46505;SDS011;32220;49.808;9.968;2024-02-26T09:51:12;4.80;;;4.00;;
46505;SDS011;32220;49.808;9.968;2024-02-26T09:53:41;5.90;;;4.23;;
46505;SDS011;32220;49.808;9.968;2024-02-26T09:56:11;5.40;;;3.90;;
46505;SDS011;32220;49.808;9.968;2024-02-26T09:58:41;5.53;;;4.23;;
46505;SDS011;32220;49.808;9.968;2024-02-26T10:01:13;7.07;;;4.60;;
46505;SDS011;32220;49.808;9.968;2024-02-26T10:03:46;5.73;;;4.37;;
46505;SDS011;32220;49.808;9.968;2024-02-26T10:06:23;5.00;;;3.70;;
46505;SDS011;32220;49.808;9.968;2024-02-26T10:08:51;7.00;;;4.33;;
46505;SDS011;32220;49.808;9.968;2024-02-26T10:11:20;5.93;;;4.47;;
46505;SDS011;32220;49.808;9.968;2024-02-26T10:13:49;6.17;;;4.37;;
46505;SDS011;32220;49.808;9.968;2024-02-26T10:16:16;4.57;;;3.80;;
46505;SDS011;32220;49.808;9.968;2024-02-26T10:18:45;5.07;;;3.97;;
46505;SDS011;32220;49.808;9.968;2024-02-26T10:21:13;5.73;;;3.67;;
46505;SDS011;32220;49.808;9.968;2024-02-26T10:23:45;4.53;;;3.53;;
46505;SDS011;32220;49.808;9.968;2024-02-26T10:26:14;6.93;;;4.13;;
46505;SDS011;32220;49.808;9.968;2024-02-26T10:28:43;5.43;;;3.73;;
46505;SDS011;32220;49.808;9.968;2024-02-26T10:31:13;4.50;;;3.23;;
46505;SDS011;32220;49.808;9.968;2024-02-26T10:33:42;4.13;;;3.60;;
46505;SDS011;32220;49.808;9.968;2024-02-26T10:36:10;4.27;;;3.70;;
46505;SDS011;32220;49.808;9.968;2024-02-26T10:38:39;5.63;;;3.53;;
46505;SDS011;32220;49.808;9.968;2024-02-26T10:41:13;4.63;;;4.10;;
46505;SDS011;32220;49.808;9.968;2024-02-26T10:43:45;3.93;;;3.37;;
46505;SDS011;32220;49.808;9.968;2024-02-26T10:46:14;3.83;;;3.47;;
46505;SDS011;32220;49.808;9.968;2024-02-26T10:48:48;4.33;;;3.50;;
46505;SDS011;32220;49.808;9.968;2024-02-26T10:51:20;3.63;;;3.33;;
46505;SDS011;32220;49.808;9.968;2024-02-26T10:53:55;3.60;;;3.27;;
46505;SDS011;32220;49.808;9.968;2024-02-26T10:56:31;3.73;;;3.27;;
46505;SDS011;32220;49.808;9.968;2024-02-26T10:59:01;3.90;;;3.47;;
46505;SDS011;32220;49.808;9.968;2024-02-26T11:01:29;4.30;;;3.53;;
46505;SDS011;32220;49.808;9.968;2024-02-26T11:03:58;4.23;;;3.60;;
46505;SDS011;32220;49.808;9.968;2024-02-26T11:06:27;3.80;;;3.10;;
46505;SDS011;32220;49.808;9.968;2024-02-26T11:08:56;4.27;;;3.23;;
46505;SDS011;32220;49.808;9.968;2024-02-26T11:11:32;3.40;;;3.10;;
46505;SDS011;32220;49.808;9.968;2024-02-26T11:17:30;3.43;;;3.10;;
46505;SDS011;32220;49.808;9.968;2024-02-26T11:20:04;4.50;;;2.80;;
46505;SDS011;32220;49.808;9.968;2024-02-26T11:22:37;2.93;;;2.33;;
46505;SDS011;32220;49.808;9.968;2024-02-26T11:25:04;3.13;;;2.83;;
46505;SDS011;32220;49.808;9.968;2024-02-26T11:27:36;5.30;;;2.50;;
46505;SDS011;32220;49.808;9.968;2024-02-26T11:30:10;3.57;;;2.73;;
46505;SDS011;32220;49.808;9.968;2024-02-26T11:32:39;3.57;;;2.67;;
46505;SDS011;32220;49.808;9.968;2024-02-26T11:35:07;3.10;;;2.80;;
46505;SDS011;32220;49.808;9.968;2024-02-26T11:37:36;3.27;;;2.97;;
46505;SDS011;32220;49.808;9.968;2024-02-26T11:40:05;3.47;;;2.80;;
46505;SDS011;32220;49.808;9.968;2024-02-26T11:45:51;3.10;;;2.53;;
46505;SDS011;32220;49.808;9.968;2024-02-26T11:48:23;2.90;;;2.60;;
46505;SDS011;32220;49.808;9.968;2024-02-26T11:50:52;3.40;;;2.40;;
46505;SDS011;32220;49.808;9.968;2024-02-26T11:53:21;2.83;;;2.50;;
46505;SDS011;32220;49.808;9.968;2024-02-26T11:58:41;4.70;;;2.90;;
46505;SDS011;32220;49.808;9.968;2024-02-26T12:04:11;2.53;;;2.00;;
46505;SDS011;32220;49.808;9.968;2024-02-26T12:06:42;2.17;;;1.97;;
46505;SDS011;32220;49.808;9.968;2024-02-26T12:12:04;2.70;;;2.30;;
46505;SDS011;32220;49.808;9.968;2024-02-26T12:14:35;4.27;;;2.50;;
46505;SDS011;32220;49.808;9.968;2024-02-26T12:17:05;3.80;;;2.40;;
46505;SDS011;32220;49.808;9.968;2024-02-26T12:19:35;2.97;;;2.17;;
46505;SDS011;32220;49.808;9.968;2024-02-26T12:22:03;2.70;;;1.73;;
46505;SDS011;32220;49.808;9.968;2024-02-26T12:24:33;2.83;;;2.47;;
46505;SDS011;32220;49.808;9.968;2024-02-26T12:27:01;3.17;;;2.17;;
46505;SDS011;32220;49.808;9.968;2024-02-26T12:29:29;3.80;;;2.00;;
46505;SDS011;32220;49.808;9.968;2024-02-26T12:31:59;2.30;;;2.10;;
46505;SDS011;32220;49.808;9.968;2024-02-26T12:35:19;4.10;;;2.60;;
46505;SDS011;32220;49.808;9.968;2024-02-26T12:37:46;2.40;;;2.10;;
46505;SDS011;32220;49.808;9.968;2024-02-26T12:40:14;3.00;;;2.23;;
46505;SDS011;32220;49.808;9.968;2024-02-26T12:42:41;2.73;;;2.00;;
46505;SDS011;32220;49.808;9.968;2024-02-26T12:45:09;2.63;;;2.20;;
46505;SDS011;32220;49.808;9.968;2024-02-26T12:47:39;3.13;;;2.00;;
46505;SDS011;32220;49.808;9.968;2024-02-26T12:50:09;3.10;;;2.10;;
46505;SDS011;32220;49.808;9.968;2024-02-26T12:52:42;2.37;;;1.70;;
46505;SDS011;32220;49.808;9.968;2024-02-26T12:55:11;2.13;;;1.93;;
46505;SDS011;32220;49.808;9.968;2024-02-26T12:57:41;2.57;;;2.37;;
46505;SDS011;32220;49.808;9.968;2024-02-26T13:00:11;2.40;;;2.00;;
46505;SDS011;32220;49.808;9.968;2024-02-26T13:02:42;2.30;;;2.10;;
46505;SDS011;32220;49.808;9.968;2024-02-26T13:05:13;2.23;;;2.03;;
46505;SDS011;32220;49.808;9.968;2024-02-26T13:07:42;2.20;;;2.00;;
46505;SDS011;32220;49.808;9.968;2024-02-26T13:10:10;2.43;;;2.03;;
46505;SDS011;32220;49.808;9.968;2024-02-26T13:12:41;2.83;;;1.90;;
46505;SDS011;32220;49.808;9.968;2024-02-26T13:15:13;2.87;;;1.97;;
46505;SDS011;32220;49.808;9.968;2024-02-26T13:17:44;3.50;;;2.33;;
46505;SDS011;32220;49.808;9.968;2024-02-26T13:20:11;4.13;;;1.80;;
46505;SDS011;32220;49.808;9.968;2024-02-26T13:22:42;2.37;;;2.17;;
46505;SDS011;32220;49.808;9.968;2024-02-26T13:25:10;2.20;;;1.93;;
46505;SDS011;32220;49.808;9.968;2024-02-26T13:27:38;2.40;;;1.90;;
46505;SDS011;32220;49.808;9.968;2024-02-26T13:30:08;2.53;;;2.17;;
46505;SDS011;32220;49.808;9.968;2024-02-26T13:32:38;2.47;;;2.07;;
46505;SDS011;32220;49.808;9.968;2024-02-26T13:35:09;2.90;;;2.40;;
46505;SDS011;32220;49.808;9.968;2024-02-26T13:37:38;2.73;;;2.27;;
46505;SDS011;32220;49.808;9.968;2024-02-26T13:40:07;4.30;;;2.50;;
46505;SDS011;32220;49.808;9.968;2024-02-26T13:42:36;2.80;;;1.97;;
46505;SDS011;32220;49.808;9.968;2024-02-26T13:45:04;2.53;;;2.17;;
46505;SDS011;32220;49.808;9.968;2024-02-26T13:47:33;3.23;;;2.50;;
46505;SDS011;32220;49.808;9.968;2024-02-26T13:50:01;3.00;;;2.50;;
46505;SDS011;32220;49.808;9.968;2024-02-26T13:52:31;2.47;;;2.27;;
46505;SDS011;32220;49.808;9.968;2024-02-26T13:55:00;2.90;;;2.43;;
46505;SDS011;32220;49.808;9.968;2024-02-26T13:57:28;2.40;;;2.20;;
46505;SDS011;32220;49.808;9.968;2024-02-26T13:59:56;2.90;;;2.30;;
46505;SDS011;32220;49.808;9.968;2024-02-26T14:02:24;2.33;;;2.13;;
46505;SDS011;32220;49.808;9.968;2024-02-26T14:04:51;2.47;;;2.00;;
46505;SDS011;32220;49.808;9.968;2024-02-26T14:07:19;2.70;;;1.97;;
46505;SDS011;32220;49.808;9.968;2024-02-26T14:09:48;4.07;;;2.10;;
46505;SDS011;32220;49.808;9.968;2024-02-26T14:12:17;2.10;;;1.90;;
46505;SDS011;32220;49.808;9.968;2024-02-26T14:14:45;2.23;;;1.80;;
46505;SDS011;32220;49.808;9.968;2024-02-26T14:17:14;2.27;;;1.90;;
46505;SDS011;32220;49.808;9.968;2024-02-26T14:19:42;2.43;;;2.17;;
46505;SDS011;32220;49.808;9.968;2024-02-26T14:22:10;2.67;;;1.93;;
46505;SDS011;32220;49.808;9.968;2024-02-26T14:24:38;1.93;;;1.60;;
46505;SDS011;32220;49.808;9.968;2024-02-26T14:27:07;1.70;;;1.60;;
46505;SDS011;32220;49.808;9.968;2024-02-26T14:29:37;3.27;;;2.10;;
46505;SDS011;32220;49.808;9.968;2024-02-26T14:32:05;2.83;;;1.80;;
46505;SDS011;32220;49.808;9.968;2024-02-26T14:34:33;1.90;;;1.70;;
46505;SDS011;32220;49.808;9.968;2024-02-26T14:37:01;3.40;;;2.20;;
46505;SDS011;32220;49.808;9.968;2024-02-26T14:39:28;2.20;;;2.00;;
46505;SDS011;32220;49.808;9.968;2024-02-26T14:41:57;2.33;;;2.13;;
46505;SDS011;32220;49.808;9.968;2024-02-26T14:44:26;2.57;;;2.20;;
46505;SDS011;32220;49.808;9.968;2024-02-26T14:46:54;2.57;;;2.00;;
46505;SDS011;32220;49.808;9.968;2024-02-26T14:49:21;3.27;;;2.10;;
46505;SDS011;32220;49.808;9.968;2024-02-26T14:51:49;3.73;;;2.30;;
46505;SDS011;32220;49.808;9.968;2024-02-26T14:54:16;2.73;;;1.90;;
46505;SDS011;32220;49.808;9.968;2024-02-26T14:56:44;5.07;;;2.07;;
46505;SDS011;32220;49.808;9.968;2024-02-26T14:59:12;3.00;;;2.27;;
46505;SDS011;32220;49.808;9.968;2024-02-26T15:01:41;2.30;;;2.00;;
46505;SDS011;32220;49.808;9.968;2024-02-26T15:04:09;3.30;;;2.40;;
46505;SDS011;32220;49.808;9.968;2024-02-26T15:06:37;2.73;;;2.33;;
46505;SDS011;32220;49.808;9.968;2024-02-26T15:09:06;2.83;;;2.57;;
46505;SDS011;32220;49.808;9.968;2024-02-26T15:11:37;2.73;;;2.40;;
46505;SDS011;32220;49.808;9.968;2024-02-26T15:14:06;3.50;;;2.17;;
46505;SDS011;32220;49.808;9.968;2024-02-26T15:16:34;3.23;;;2.60;;
46505;SDS011;32220;49.808;9.968;2024-02-26T15:19:03;3.17;;;2.63;;
46505;SDS011;32220;49.808;9.968;2024-02-26T15:21:33;2.83;;;2.23;;
46505;SDS011;32220;49.808;9.968;2024-02-26T15:24:00;2.80;;;2.43;;
46505;SDS011;32220;49.808;9.968;2024-02-26T15:26:29;3.83;;;2.90;;
46505;SDS011;32220;49.808;9.968;2024-02-26T15:28:56;2.40;;;2.20;;
46505;SDS011;32220;49.808;9.968;2024-02-26T15:31:24;3.13;;;2.60;;
46505;SDS011;32220;49.808;9.968;2024-02-26T15:33:52;3.27;;;2.40;;
46505;SDS011;32220;49.808;9.968;2024-02-26T15:36:21;3.13;;;2.37;;
46505;SDS011;32220;49.808;9.968;2024-02-26T15:38:48;3.10;;;2.60;;
46505;SDS011;32220;49.808;9.968;2024-02-26T15:41:16;3.53;;;2.57;;
46505;SDS011;32220;49.808;9.968;2024-02-26T15:43:44;3.40;;;2.53;;
46505;SDS011;32220;49.808;9.968;2024-02-26T15:46:11;2.70;;;2.30;;
46505;SDS011;32220;49.808;9.968;2024-02-26T15:48:39;3.63;;;2.70;;
46505;SDS011;32220;49.808;9.968;2024-02-26T15:51:07;3.10;;;2.60;;
46505;SDS011;32220;49.808;9.968;2024-02-26T15:53:37;4.20;;;2.40;;
46505;SDS011;32220;49.808;9.968;2024-02-26T15:56:05;2.90;;;2.40;;
46505;SDS011;32220;49.808;9.968;2024-02-26T15:58:33;4.00;;;2.90;;
46505;SDS011;32220;49.808;9.968;2024-02-26T16:01:03;3.40;;;2.40;;
46505;SDS011;32220;49.808;9.968;2024-02-26T16:03:35;2.30;;;2.10;;
46505;SDS011;32220;49.808;9.968;2024-02-26T16:06:04;3.20;;;2.20;;
46505;SDS011;32220;49.808;9.968;2024-02-26T16:08:33;4.20;;;2.73;;
46505;SDS011;32220;49.808;9.968;2024-02-26T16:11:03;2.50;;;2.27;;
46505;SDS011;32220;49.808;9.968;2024-02-26T16:13:31;3.57;;;2.80;;
46505;SDS011;32220;49.808;9.968;2024-02-26T16:16:02;3.20;;;2.70;;
46505;SDS011;32220;49.808;9.968;2024-02-26T16:18:32;3.60;;;2.70;;
46505;SDS011;32220;49.808;9.968;2024-02-26T16:21:01;4.20;;;2.90;;
46505;SDS011;32220;49.808;9.968;2024-02-26T16:23:32;3.30;;;2.83;;
46505;SDS011;32220;49.808;9.968;2024-02-26T16:26:00;3.43;;;2.70;;
46505;SDS011;32220;49.808;9.968;2024-02-26T16:28:29;3.37;;;2.90;;
46505;SDS011;32220;49.808;9.968;2024-02-26T16:30:58;4.47;;;2.70;;
46505;SDS011;32220;49.808;9.968;2024-02-26T16:33:25;3.87;;;2.73;;
46505;SDS011;32220;49.808;9.968;2024-02-26T16:35:54;3.37;;;2.53;;
46505;SDS011;32220;49.808;9.968;2024-02-26T16:38:22;4.47;;;2.63;;
46505;SDS011;32220;49.808;9.968;2024-02-26T16:40:56;3.73;;;2.73;;
46505;SDS011;32220;49.808;9.968;2024-02-26T16:43:24;3.73;;;2.83;;
46505;SDS011;32220;49.808;9.968;2024-02-26T16:45:53;3.13;;;2.50;;
46505;SDS011;32220;49.808;9.968;2024-02-26T16:48:21;3.33;;;2.80;;
46505;SDS011;32220;49.808;9.968;2024-02-26T16:50:49;4.10;;;3.40;;
46505;SDS011;32220;49.808;9.968;2024-02-26T16:53:16;3.60;;;2.70;;
46505;SDS011;32220;49.808;9.968;2024-02-26T16:55:45;3.73;;;2.90;;
46505;SDS011;32220;49.808;9.968;2024-02-26T16:58:14;5.03;;;3.13;;
46505;SDS011;32220;49.808;9.968;2024-02-26T17:00:42;3.70;;;2.80;;
46505;SDS011;32220;49.808;9.968;2024-02-26T17:03:12;3.90;;;3.03;;
46505;SDS011;32220;49.808;9.968;2024-02-26T17:05:41;4.23;;;2.77;;
46505;SDS011;32220;49.808;9.968;2024-02-26T17:08:09;3.90;;;2.80;;
46505;SDS011;32220;49.808;9.968;2024-02-26T17:10:38;3.37;;;2.80;;
46505;SDS011;32220;49.808;9.968;2024-02-26T17:13:05;2.93;;;2.67;;
46505;SDS011;32220;49.808;9.968;2024-02-26T17:15:33;3.60;;;3.07;;
46505;SDS011;32220;49.808;9.968;2024-02-26T17:18:04;3.90;;;3.00;;
46505;SDS011;32220;49.808;9.968;2024-02-26T17:20:40;4.13;;;3.00;;
46505;SDS011;32220;49.808;9.968;2024-02-26T17:23:08;4.27;;;3.17;;
46505;SDS011;32220;49.808;9.968;2024-02-26T17:25:35;3.53;;;2.63;;
46505;SDS011;32220;49.808;9.968;2024-02-26T17:28:05;4.30;;;3.00;;
46505;SDS011;32220;49.808;9.968;2024-02-26T17:30:33;5.20;;;3.50;;
46505;SDS011;32220;49.808;9.968;2024-02-26T17:33:01;4.50;;;3.70;;
46505;SDS011;32220;49.808;9.968;2024-02-26T17:35:29;4.00;;;2.83;;
46505;SDS011;32220;49.808;9.968;2024-02-26T17:37:58;4.43;;;3.10;;
46505;SDS011;32220;49.808;9.968;2024-02-26T17:40:26;3.87;;;2.97;;
46505;SDS011;32220;49.808;9.968;2024-02-26T17:42:55;4.87;;;3.23;;
46505;SDS011;32220;49.808;9.968;2024-02-26T17:45:22;5.23;;;3.60;;
46505;SDS011;32220;49.808;9.968;2024-02-26T17:47:52;4.77;;;3.50;;
46505;SDS011;32220;49.808;9.968;2024-02-26T17:50:19;5.07;;;3.03;;
46505;SDS011;32220;49.808;9.968;2024-02-26T17:52:48;4.40;;;3.20;;
46505;SDS011;32220;49.808;9.968;2024-02-26T17:55:20;3.70;;;3.20;;
46505;SDS011;32220;49.808;9.968;2024-02-26T17:57:49;4.00;;;3.50;;
46505;SDS011;32220;49.808;9.968;2024-02-26T18:00:16;3.33;;;2.87;;
46505;SDS011;32220;49.808;9.968;2024-02-26T18:02:44;5.03;;;3.63;;